Main page
METAR-TAF:

METAR-TAF

Airports :

Alfredo Vásquez Cobo International Airport

Leticia, Colombia

latitude: 04-10S, longitude: 069-57W, elevation: 84 m

Current weather observation

The report was made 1 hour and 5 minutes ago, at 19:00 UTC
Wind 4 kt from the East
Temperature 31°C
Humidity 46%
Pressure 1015 hPa
Visibility 10 km or more
no clouds below 1500 m and no cumulonimbus

METAR: SKLT 161900Z 10004KT CAVOK 31/18 Q1015

Time: 15:05 (20:05 UTC)

Forecast

The report was made 3 hours and 35 minutes ago, at 16:30 UTC
Forecast valid from 16 at 18 UTC to 17 at 18 UTC
Wind 2 kt from variable directions
Visibility 10 km or more
no clouds below 1500 m and no cumulonimbus

TAF: SKLT 161630Z 1618/1718 VRB02KT CAVOK TX33/1619Z TN20/1710Z

Weather observations and forecasts of more than 4000 airports (METAR and TAF reports).

The available stations are represented by yellow and red dots on the map.

Hover mouse over dot to see the name of the station.

Then click to see weather observations and forecasts.

To change the map : click on the green buttons with a black cross to zoom in, on the green button with a dash to zoom out, or on the green arrows for adjacent maps.


METAR-TAF: